sensor_id;sensor_type;location;lat;lon;timestamp;pressure;altitude;pressure_sealevel;temperature;humidity
48606;BME280;8482;54.396;18.590;2023-02-21T08:22:07;100153.25;;;7.49;66.84
48606;BME280;8482;54.396;18.590;2023-02-21T08:24:33;100158.16;;;7.54;67.23
48606;BME280;8482;54.396;18.590;2023-02-21T08:26:59;100177.38;;;7.56;67.10
48606;BME280;8482;54.396;18.590;2023-02-21T08:29:25;100160.47;;;7.59;66.76
48606;BME280;8482;54.396;18.590;2023-02-21T08:31:51;100169.09;;;7.61;66.49
48606;BME280;8482;54.396;18.590;2023-02-21T08:34:17;100161.91;;;7.63;66.39
48606;BME280;8482;54.396;18.590;2023-02-21T08:36:43;100170.78;;;7.62;66.00
48606;BME280;8482;54.396;18.590;2023-02-21T08:39:10;100180.03;;;7.67;66.46
48606;BME280;8482;54.396;18.590;2023-02-21T08:41:46;100177.19;;;7.71;66.11
48606;BME280;8482;54.396;18.590;2023-02-21T08:44:17;100188.56;;;7.71;65.92
48606;BME280;8482;54.396;18.590;2023-02-21T08:46:47;100193.97;;;7.70;65.88
48606;BME280;8482;54.396;18.590;2023-02-21T08:49:13;100200.19;;;7.69;65.97
48606;BME280;8482;54.396;18.590;2023-02-21T08:51:39;100198.66;;;7.66;65.76
48606;BME280;8482;54.396;18.590;2023-02-21T08:54:06;100203.06;;;7.65;65.86
48606;BME280;8482;54.396;18.590;2023-02-21T08:56:32;100204.63;;;7.68;66.06
48606;BME280;8482;54.396;18.590;2023-02-21T08:58:59;100207.25;;;7.68;66.08
48606;BME280;8482;54.396;18.590;2023-02-21T09:01:32;100214.97;;;7.71;66.43
48606;BME280;8482;54.396;18.590;2023-02-21T09:04:00;100206.81;;;7.74;66.28
48606;BME280;8482;54.396;18.590;2023-02-21T09:06:26;100222.53;;;7.76;65.95
48606;BME280;8482;54.396;18.590;2023-02-21T09:08:52;100237.31;;;7.78;65.98
48606;BME280;8482;54.396;18.590;2023-02-21T09:11:18;100231.91;;;7.80;65.81
48606;BME280;8482;54.396;18.590;2023-02-21T09:13:43;100232.78;;;7.80;66.14
48606;BME280;8482;54.396;18.590;2023-02-21T09:16:09;100236.09;;;7.82;65.88
48606;BME280;8482;54.396;18.590;2023-02-21T09:18:35;100235.16;;;7.83;66.14
48606;BME280;8482;54.396;18.590;2023-02-21T09:21:01;100250.91;;;7.85;66.32
48606;BME280;8482;54.396;18.590;2023-02-21T09:23:29;100250.66;;;7.88;66.20
48606;BME280;8482;54.396;18.590;2023-02-21T09:25:55;100262.06;;;7.89;65.78
48606;BME280;8482;54.396;18.590;2023-02-21T09:28:22;100245.13;;;7.91;65.99
48606;BME280;8482;54.396;18.590;2023-02-21T09:30:49;100264.34;;;7.93;65.81
48606;BME280;8482;54.396;18.590;2023-02-21T09:33:15;100264.34;;;7.93;65.52
48606;BME280;8482;54.396;18.590;2023-02-21T09:35:41;100270.50;;;7.94;65.72
48606;BME280;8482;54.396;18.590;2023-02-21T09:38:08;100260.97;;;7.91;65.58
48606;BME280;8482;54.396;18.590;2023-02-21T09:40:55;100264.72;;;7.89;65.73
48606;BME280;8482;54.396;18.590;2023-02-21T09:43:44;100270.81;;;7.89;65.81
48606;BME280;8482;54.396;18.590;2023-02-21T09:49:05;100279.47;;;7.91;65.62
48606;BME280;8482;54.396;18.590;2023-02-21T09:51:33;100287.38;;;7.91;65.60
48606;BME280;8482;54.396;18.590;2023-02-21T09:54:23;100290.88;;;7.92;65.57
48606;BME280;8482;54.396;18.590;2023-02-21T09:56:49;100297.00;;;7.92;65.98
48606;BME280;8482;54.396;18.590;2023-02-21T09:59:16;100302.28;;;7.92;65.75
48606;BME280;8482;54.396;18.590;2023-02-21T10:10:49;100322.31;;;7.95;65.38
48606;BME280;8482;54.396;18.590;2023-02-21T10:16:36;100344.44;;;7.94;65.67
48606;BME280;8482;54.396;18.590;2023-02-21T10:19:25;100337.34;;;7.94;65.82
48606;BME280;8482;54.396;18.590;2023-02-21T10:21:53;100344.09;;;7.98;66.16
48606;BME280;8482;54.396;18.590;2023-02-21T10:24:26;100350.94;;;8.01;65.88
48606;BME280;8482;54.396;18.590;2023-02-21T10:27:03;100358.75;;;8.03;65.64
48606;BME280;8482;54.396;18.590;2023-02-21T10:30:03;100363.78;;;8.06;65.29
48606;BME280;8482;54.396;18.590;2023-02-21T10:32:31;100358.75;;;8.03;65.19
48606;BME280;8482;54.396;18.590;2023-02-21T10:34:57;100362.97;;;8.05;65.64
48606;BME280;8482;54.396;18.590;2023-02-21T10:42:50;100376.66;;;8.10;65.38
48606;BME280;8482;54.396;18.590;2023-02-21T10:45:23;100366.09;;;8.10;65.14
48606;BME280;8482;54.396;18.590;2023-02-21T10:48:05;100375.84;;;8.10;65.12
48606;BME280;8482;54.396;18.590;2023-02-21T10:51:04;100385.44;;;8.11;65.43
48606;BME280;8482;54.396;18.590;2023-02-21T10:53:34;100390.81;;;8.09;65.27
48606;BME280;8482;54.396;18.590;2023-02-21T10:56:19;100381.94;;;8.10;65.48
48606;BME280;8482;54.396;18.590;2023-02-21T10:59:05;100387.34;;;8.09;65.05
48606;BME280;8482;54.396;18.590;2023-02-21T11:01:44;100399.38;;;8.13;65.25
48606;BME280;8482;54.396;18.590;2023-02-21T11:06:54;100397.44;;;8.15;65.00
48606;BME280;8482;54.396;18.590;2023-02-21T11:12:25;100405.38;;;8.15;65.03
48606;BME280;8482;54.396;18.590;2023-02-21T11:17:25;100410.44;;;8.18;65.06
48606;BME280;8482;54.396;18.590;2023-02-21T11:20:19;100413.81;;;8.20;64.79
48606;BME280;8482;54.396;18.590;2023-02-21T11:22:48;100414.03;;;8.17;64.71
48606;BME280;8482;54.396;18.590;2023-02-21T11:28:21;100421.75;;;8.20;64.89
48606;BME280;8482;54.396;18.590;2023-02-21T11:31:10;100433.13;;;8.21;64.54
48606;BME280;8482;54.396;18.590;2023-02-21T11:33:59;100430.50;;;8.21;64.61
48606;BME280;8482;54.396;18.590;2023-02-21T11:36:30;100438.66;;;8.18;64.16
48606;BME280;8482;54.396;18.590;2023-02-21T11:41:56;100440.69;;;8.14;63.66
48606;BME280;8482;54.396;18.590;2023-02-21T11:44:32;100447.16;;;8.10;63.64
48606;BME280;8482;54.396;18.590;2023-02-21T11:47:49;100449.91;;;8.08;63.79
48606;BME280;8482;54.396;18.590;2023-02-21T11:50:38;100435.00;;;8.07;64.05
48606;BME280;8482;54.396;18.590;2023-02-21T11:53:33;100451.59;;;8.09;64.01
48606;BME280;8482;54.396;18.590;2023-02-21T11:56:45;100453.50;;;8.07;63.57
48606;BME280;8482;54.396;18.590;2023-02-21T12:08:46;100459.91;;;8.16;63.83
48606;BME280;8482;54.396;18.590;2023-02-21T12:12:03;100468.56;;;8.18;63.70
48606;BME280;8482;54.396;18.590;2023-02-21T12:21:08;100480.78;;;8.32;63.65
48606;BME280;8482;54.396;18.590;2023-02-21T12:26:46;100476.84;;;8.38;63.44
48606;BME280;8482;54.396;18.590;2023-02-21T12:38:17;100497.50;;;8.44;62.64
48606;BME280;8482;54.396;18.590;2023-02-21T12:44:14;100489.03;;;8.52;61.94
48606;BME280;8482;54.396;18.590;2023-02-21T12:50:00;100491.59;;;8.53;62.20
48606;BME280;8482;54.396;18.590;2023-02-21T12:52:48;100494.94;;;8.55;62.21
48606;BME280;8482;54.396;18.590;2023-02-21T12:55:24;100503.50;;;8.59;61.92
48606;BME280;8482;54.396;18.590;2023-02-21T12:58:17;100541.88;;;8.65;61.78
48606;BME280;8482;54.396;18.590;2023-02-21T13:01:10;100508.31;;;8.65;61.53
48606;BME280;8482;54.396;18.590;2023-02-21T13:04:14;100501.00;;;8.69;61.60
48606;BME280;8482;54.396;18.590;2023-02-21T13:07:03;100512.09;;;8.74;61.73
48606;BME280;8482;54.396;18.590;2023-02-21T13:10:12;100505.75;;;8.88;61.71
48606;BME280;8482;54.396;18.590;2023-02-21T13:12:53;100513.72;;;8.99;61.46
48606;BME280;8482;54.396;18.590;2023-02-21T13:15:27;100514.69;;;9.10;61.46
48606;BME280;8482;54.396;18.590;2023-02-21T13:18:14;100519.63;;;9.14;61.09
48606;BME280;8482;54.396;18.590;2023-02-21T13:20:56;100521.56;;;9.12;61.19
48606;BME280;8482;54.396;18.590;2023-02-21T13:26:42;100521.78;;;9.20;61.31
48606;BME280;8482;54.396;18.590;2023-02-21T13:29:24;100536.63;;;9.23;61.33
48606;BME280;8482;54.396;18.590;2023-02-21T13:32:08;100531.56;;;9.20;61.21
48606;BME280;8482;54.396;18.590;2023-02-21T13:34:40;100537.56;;;9.22;60.97
48606;BME280;8482;54.396;18.590;2023-02-21T13:37:21;100551.78;;;9.21;60.98
48606;BME280;8482;54.396;18.590;2023-02-21T13:39:57;100552.00;;;9.18;60.23
48606;BME280;8482;54.396;18.590;2023-02-21T13:42:28;100554.66;;;9.18;59.91
48606;BME280;8482;54.396;18.590;2023-02-21T13:45:28;100575.00;;;9.17;59.64
48606;BME280;8482;54.396;18.590;2023-02-21T13:53:19;100569.28;;;9.80;58.54
48606;BME280;8482;54.396;18.590;2023-02-21T13:58:39;100576.69;;;10.32;57.08
48606;BME280;8482;54.396;18.590;2023-02-21T14:01:40;100584.38;;;10.35;57.49
48606;BME280;8482;54.396;18.590;2023-02-21T14:07:45;100603.22;;;10.09;57.64
48606;BME280;8482;54.396;18.590;2023-02-21T14:10:46;100599.97;;;9.94;57.86
48606;BME280;8482;54.396;18.590;2023-02-21T14:13:53;100617.19;;;9.77;58.51
48606;BME280;8482;54.396;18.590;2023-02-21T14:16:45;100623.56;;;9.63;58.79
48606;BME280;8482;54.396;18.590;2023-02-21T14:21:47;100631.44;;;9.41;59.21
48606;BME280;8482;54.396;18.590;2023-02-21T14:24:25;100628.69;;;9.31;59.10
48606;BME280;8482;54.396;18.590;2023-02-21T14:32:48;100651.56;;;9.08;60.02
48606;BME280;8482;54.396;18.590;2023-02-21T14:37:58;100671.09;;;8.94;60.21
48606;BME280;8482;54.396;18.590;2023-02-21T14:40:40;100663.63;;;8.87;60.43
48606;BME280;8482;54.396;18.590;2023-02-21T14:58:54;100695.25;;;8.52;61.36
48606;BME280;8482;54.396;18.590;2023-02-21T15:01:59;100717.66;;;8.46;61.56
48606;BME280;8482;54.396;18.590;2023-02-21T15:09:30;100710.72;;;8.32;62.13
48606;BME280;8482;54.396;18.590;2023-02-21T15:11:58;100720.41;;;8.32;62.57
48606;BME280;8482;54.396;18.590;2023-02-21T15:14:29;100723.06;;;8.32;62.83
48606;BME280;8482;54.396;18.590;2023-02-21T15:17:12;100720.75;;;8.27;62.67
48606;BME280;8482;54.396;18.590;2023-02-21T15:19:39;100728.66;;;8.27;63.37
48606;BME280;8482;54.396;18.590;2023-02-21T15:27:58;100739.78;;;8.19;63.47
48606;BME280;8482;54.396;18.590;2023-02-21T15:30:52;100736.38;;;8.17;63.77
48606;BME280;8482;54.396;18.590;2023-02-21T15:33:20;100740.22;;;8.13;64.01
48606;BME280;8482;54.396;18.590;2023-02-21T15:35:54;100754.13;;;8.15;64.42
48606;BME280;8482;54.396;18.590;2023-02-21T15:39:01;100760.28;;;8.16;64.59
48606;BME280;8482;54.396;18.590;2023-02-21T15:44:19;100766.72;;;8.11;64.75
48606;BME280;8482;54.396;18.590;2023-02-21T15:47:12;100766.63;;;8.13;64.56
48606;BME280;8482;54.396;18.590;2023-02-21T15:49:45;100775.50;;;8.12;65.37
48606;BME280;8482;54.396;18.590;2023-02-21T15:58:13;100777.59;;;8.07;64.95
48606;BME280;8482;54.396;18.590;2023-02-21T16:00:47;100788.91;;;8.09;65.32
48606;BME280;8482;54.396;18.590;2023-02-21T16:03:41;100789.75;;;8.09;65.14
48606;BME280;8482;54.396;18.590;2023-02-21T16:06:47;100784.78;;;8.05;64.80
48606;BME280;8482;54.396;18.590;2023-02-21T16:17:37;100810.78;;;7.98;65.63
48606;BME280;8482;54.396;18.590;2023-02-21T16:20:17;100812.59;;;7.97;65.79
48606;BME280;8482;54.396;18.590;2023-02-21T16:22:49;100818.81;;;7.96;66.02
48606;BME280;8482;54.396;18.590;2023-02-21T16:25:21;100827.56;;;7.97;65.50
48606;BME280;8482;54.396;18.590;2023-02-21T16:28:00;100832.09;;;7.95;65.66
48606;BME280;8482;54.396;18.590;2023-02-21T16:30:30;100836.56;;;7.94;65.95
48606;BME280;8482;54.396;18.590;2023-02-21T16:33:03;100839.31;;;7.93;65.73
48606;BME280;8482;54.396;18.590;2023-02-21T16:35:31;100849.88;;;7.93;65.90
48606;BME280;8482;54.396;18.590;2023-02-21T16:37:59;100856.84;;;7.94;66.54
48606;BME280;8482;54.396;18.590;2023-02-21T16:40:31;100860.44;;;7.93;66.66
48606;BME280;8482;54.396;18.590;2023-02-21T16:42:59;100871.84;;;7.93;66.57
48606;BME280;8482;54.396;18.590;2023-02-21T16:45:27;100882.28;;;7.95;66.98
48606;BME280;8482;54.396;18.590;2023-02-21T16:47:59;100887.69;;;7.93;67.18
48606;BME280;8482;54.396;18.590;2023-02-21T16:50:38;100892.84;;;7.95;66.97
48606;BME280;8482;54.396;18.590;2023-02-21T16:53:05;100909.75;;;7.92;66.82
48606;BME280;8482;54.396;18.590;2023-02-21T16:55:31;100904.91;;;7.86;66.46
48606;BME280;8482;54.396;18.590;2023-02-21T16:58:02;100914.91;;;7.81;66.73
48606;BME280;8482;54.396;18.590;2023-02-21T17:00:31;100922.19;;;7.77;66.48
48606;BME280;8482;54.396;18.590;2023-02-21T17:02:58;100939.91;;;7.75;67.03
48606;BME280;8482;54.396;18.590;2023-02-21T17:05:24;100933.88;;;7.73;66.74
48606;BME280;8482;54.396;18.590;2023-02-21T17:07:52;100930.59;;;7.70;67.18
48606;BME280;8482;54.396;18.590;2023-02-21T17:10:19;100943.88;;;7.68;67.05
48606;BME280;8482;54.396;18.590;2023-02-21T17:12:46;100953.59;;;7.67;67.36
48606;BME280;8482;54.396;18.590;2023-02-21T17:15:12;100947.56;;;7.65;67.86
48606;BME280;8482;54.396;18.590;2023-02-21T17:17:39;100957.28;;;7.65;67.75
48606;BME280;8482;54.396;18.590;2023-02-21T17:20:07;100959.25;;;7.61;67.28
48606;BME280;8482;54.396;18.590;2023-02-21T17:22:33;100971.91;;;7.56;66.89
48606;BME280;8482;54.396;18.590;2023-02-21T17:25:00;100966.94;;;7.51;66.65
48606;BME280;8482;54.396;18.590;2023-02-21T17:27:26;100967.13;;;7.48;66.71
48606;BME280;8482;54.396;18.590;2023-02-21T17:29:52;100976.91;;;7.46;66.66
48606;BME280;8482;54.396;18.590;2023-02-21T17:32:18;100994.56;;;7.46;66.71
48606;BME280;8482;54.396;18.590;2023-02-21T17:34:44;100989.47;;;7.43;66.67
48606;BME280;8482;54.396;18.590;2023-02-21T17:37:10;101007.19;;;7.41;66.47
48606;BME280;8482;54.396;18.590;2023-02-21T17:39:36;101008.22;;;7.38;66.70
48606;BME280;8482;54.396;18.590;2023-02-21T17:42:02;101014.63;;;7.34;66.46
48606;BME280;8482;54.396;18.590;2023-02-21T17:44:29;101016.59;;;7.30;66.26
48606;BME280;8482;54.396;18.590;2023-02-21T17:46:56;101019.53;;;7.26;66.55
48606;BME280;8482;54.396;18.590;2023-02-21T17:49:26;101015.47;;;7.20;66.16
48606;BME280;8482;54.396;18.590;2023-02-21T17:51:53;101027.63;;;7.23;66.23
48606;BME280;8482;54.396;18.590;2023-02-21T17:54:22;101030.44;;;7.19;66.07
48606;BME280;8482;54.396;18.590;2023-02-21T17:56:50;101033.19;;;7.18;66.46
48606;BME280;8482;54.396;18.590;2023-02-21T17:59:17;101031.66;;;7.14;66.20
48606;BME280;8482;54.396;18.590;2023-02-21T18:01:43;101032.72;;;7.11;66.52
48606;BME280;8482;54.396;18.590;2023-02-21T18:04:10;101049.53;;;7.09;66.67
48606;BME280;8482;54.396;18.590;2023-02-21T18:06:39;101048.81;;;7.07;66.65
48606;BME280;8482;54.396;18.590;2023-02-21T18:09:05;101049.81;;;7.04;66.32
48606;BME280;8482;54.396;18.590;2023-02-21T18:11:33;101053.59;;;7.00;66.69
48606;BME280;8482;54.396;18.590;2023-02-21T18:14:03;101051.97;;;6.97;66.74
48606;BME280;8482;54.396;18.590;2023-02-21T18:16:29;101066.09;;;6.96;66.33
48606;BME280;8482;54.396;18.590;2023-02-21T18:18:55;101063.72;;;6.92;66.65
48606;BME280;8482;54.396;18.590;2023-02-21T18:21:21;101069.19;;;6.88;66.84
48606;BME280;8482;54.396;18.590;2023-02-21T18:23:48;101078.91;;;6.88;66.56
48606;BME280;8482;54.396;18.590;2023-02-21T18:26:15;101073.03;;;6.83;66.68
48606;BME280;8482;54.396;18.590;2023-02-21T18:28:41;101093.28;;;6.82;67.04
48606;BME280;8482;54.396;18.590;2023-02-21T18:31:07;101084.50;;;6.82;66.66
48606;BME280;8482;54.396;18.590;2023-02-21T18:33:33;101103.94;;;6.81;66.75
48606;BME280;8482;54.396;18.590;2023-02-21T18:35:59;101102.22;;;6.80;67.26
48606;BME280;8482;54.396;18.590;2023-02-21T18:38:26;101099.94;;;6.73;66.58
48606;BME280;8482;54.396;18.590;2023-02-21T18:40:52;101118.28;;;6.75;67.32
48606;BME280;8482;54.396;18.590;2023-02-21T18:43:26;101118.50;;;6.72;66.92
48606;BME280;8482;54.396;18.590;2023-02-21T18:45:54;101123.16;;;6.67;67.02
48606;BME280;8482;54.396;18.590;2023-02-21T18:48:23;101133.81;;;6.65;66.02
48606;BME280;8482;54.396;18.590;2023-02-21T18:50:50;101132.25;;;6.61;66.03
48606;BME280;8482;54.396;18.590;2023-02-21T18:53:17;101137.03;;;6.54;66.44
48606;BME280;8482;54.396;18.590;2023-02-21T18:55:43;101137.13;;;6.53;65.58
48606;BME280;8482;54.396;18.590;2023-02-21T18:58:10;101131.34;;;6.46;65.60
48606;BME280;8482;54.396;18.590;2023-02-21T19:00:37;101142.06;;;6.43;65.33
48606;BME280;8482;54.396;18.590;2023-02-21T19:03:07;101145.72;;;6.40;65.42
48606;BME280;8482;54.396;18.590;2023-02-21T19:05:34;101147.75;;;6.35;65.71
48606;BME280;8482;54.396;18.590;2023-02-21T19:08:00;101151.41;;;6.33;65.01
48606;BME280;8482;54.396;18.590;2023-02-21T19:10:28;101156.94;;;6.28;64.89
48606;BME280;8482;54.396;18.590;2023-02-21T19:12:54;101153.69;;;6.23;64.71
48606;BME280;8482;54.396;18.590;2023-02-21T19:15:24;101174.06;;;6.19;64.74
48606;BME280;8482;54.396;18.590;2023-02-21T19:17:50;101165.47;;;6.16;65.34
48606;BME280;8482;54.396;18.590;2023-02-21T19:20:16;101175.16;;;6.15;64.96
48606;BME280;8482;54.396;18.590;2023-02-21T19:22:45;101177.91;;;6.13;65.31
48606;BME280;8482;54.396;18.590;2023-02-21T19:25:11;101182.28;;;6.13;65.85
48606;BME280;8482;54.396;18.590;2023-02-21T19:27:38;101178.06;;;6.10;66.15
48606;BME280;8482;54.396;18.590;2023-02-21T19:30:04;101191.13;;;6.12;66.26
48606;BME280;8482;54.396;18.590;2023-02-21T19:32:32;101192.16;;;6.09;65.63
48606;BME280;8482;54.396;18.590;2023-02-21T19:35:00;101202.00;;;6.06;66.49
48606;BME280;8482;54.396;18.590;2023-02-21T19:37:27;101199.38;;;6.06;66.01
48606;BME280;8482;54.396;18.590;2023-02-21T19:39:53;101205.72;;;6.02;65.91
48606;BME280;8482;54.396;18.590;2023-02-21T19:42:19;101206.56;;;6.02;66.57
48606;BME280;8482;54.396;18.590;2023-02-21T19:44:45;101211.97;;;5.99;66.48
48606;BME280;8482;54.396;18.590;2023-02-21T19:47:13;101218.31;;;5.95;66.45
48606;BME280;8482;54.396;18.590;2023-02-21T19:49:39;101222.91;;;5.91;66.48
48606;BME280;8482;54.396;18.590;2023-02-21T19:52:13;101215.25;;;5.87;67.29
48606;BME280;8482;54.396;18.590;2023-02-21T19:54:39;101224.06;;;5.86;67.37
48606;BME280;8482;54.396;18.590;2023-02-21T19:57:05;101225.16;;;5.81;67.87
48606;BME280;8482;54.396;18.590;2023-02-21T19:59:31;101233.97;;;5.80;67.30
48606;BME280;8482;54.396;18.590;2023-02-21T20:01:58;101232.38;;;5.78;67.45
48606;BME280;8482;54.396;18.590;2023-02-21T20:04:25;101241.28;;;5.75;67.30
48606;BME280;8482;54.396;18.590;2023-02-21T20:06:56;101241.44;;;5.72;67.24
48606;BME280;8482;54.396;18.590;2023-02-21T20:09:22;101251.03;;;5.73;67.50
48606;BME280;8482;54.396;18.590;2023-02-21T20:11:48;101257.22;;;5.72;67.67
48606;BME280;8482;54.396;18.590;2023-02-21T20:14:14;101259.00;;;5.72;67.95
48606;BME280;8482;54.396;18.590;2023-02-21T20:16:43;101258.16;;;5.71;67.82
48606;BME280;8482;54.396;18.590;2023-02-21T20:19:11;101261.63;;;5.72;68.80
48606;BME280;8482;54.396;18.590;2023-02-21T20:21:38;101260.69;;;5.73;68.97
48606;BME280;8482;54.396;18.590;2023-02-21T20:24:05;101270.38;;;5.72;69.62
48606;BME280;8482;54.396;18.590;2023-02-21T20:26:36;101273.84;;;5.73;69.91
48606;BME280;8482;54.396;18.590;2023-02-21T20:29:03;101275.72;;;5.71;69.74
48606;BME280;8482;54.396;18.590;2023-02-21T20:31:31;101280.22;;;5.68;70.04
48606;BME280;8482;54.396;18.590;2023-02-21T20:33:58;101286.41;;;5.67;70.38
48606;BME280;8482;54.396;18.590;2023-02-21T20:36:39;101303.28;;;5.63;70.43
48606;BME280;8482;54.396;18.590;2023-02-21T20:39:17;101311.47;;;5.57;70.59
48606;BME280;8482;54.396;18.590;2023-02-21T20:41:44;101305.72;;;5.49;71.02
48606;BME280;8482;54.396;18.590;2023-02-21T20:44:11;101311.13;;;5.46;71.52
48606;BME280;8482;54.396;18.590;2023-02-21T20:46:37;101306.09;;;5.41;71.63
48606;BME280;8482;54.396;18.590;2023-02-21T20:49:04;101309.88;;;5.35;72.14
48606;BME280;8482;54.396;18.590;2023-02-21T20:51:36;101313.34;;;5.36;72.20
48606;BME280;8482;54.396;18.590;2023-02-21T20:54:16;101317.00;;;5.33;72.43
48606;BME280;8482;54.396;18.590;2023-02-21T20:56:45;101317.91;;;5.32;72.60
48606;BME280;8482;54.396;18.590;2023-02-21T20:59:20;101323.34;;;5.29;72.97
48606;BME280;8482;54.396;18.590;2023-02-21T21:01:47;101332.06;;;5.30;72.82
48606;BME280;8482;54.396;18.590;2023-02-21T21:04:16;101327.72;;;5.29;73.20
48606;BME280;8482;54.396;18.590;2023-02-21T21:06:44;101327.97;;;5.24;73.58
48606;BME280;8482;54.396;18.590;2023-02-21T21:09:10;101340.88;;;5.29;73.54
48606;BME280;8482;54.396;18.590;2023-02-21T21:11:45;101336.50;;;5.29;73.67
48606;BME280;8482;54.396;18.590;2023-02-21T21:14:12;101344.38;;;5.29;73.97
48606;BME280;8482;54.396;18.590;2023-02-21T21:16:42;101347.03;;;5.29;73.55
48606;BME280;8482;54.396;18.590;2023-02-21T21:19:10;101357.53;;;5.29;73.20
48606;BME280;8482;54.396;18.590;2023-02-21T21:21:36;101358.47;;;5.28;73.10
48606;BME280;8482;54.396;18.590;2023-02-21T21:24:03;101358.50;;;5.27;72.86
48606;BME280;8482;54.396;18.590;2023-02-21T21:26:32;101357.69;;;5.26;72.92
48606;BME280;8482;54.396;18.590;2023-02-21T21:28:58;101368.25;;;5.25;72.32
48606;BME280;8482;54.396;18.590;2023-02-21T21:31:27;101377.06;;;5.24;72.04
48606;BME280;8482;54.396;18.590;2023-02-21T21:33:53;101378.03;;;5.22;71.88
48606;BME280;8482;54.396;18.590;2023-02-21T21:36:23;101365.22;;;5.15;71.16
48606;BME280;8482;54.396;18.590;2023-02-21T21:38:51;101383.41;;;5.19;70.33
48606;BME280;8482;54.396;18.590;2023-02-21T21:41:17;101382.63;;;5.17;70.42
48606;BME280;8482;54.396;18.590;2023-02-21T21:43:44;101383.63;;;5.15;69.65
48606;BME280;8482;54.396;18.590;2023-02-21T21:46:12;101390.72;;;5.13;69.23
48606;BME280;8482;54.396;18.590;2023-02-21T21:48:43;101391.78;;;5.09;69.17
48606;BME280;8482;54.396;18.590;2023-02-21T21:51:10;101390.38;;;5.01;68.85
48606;BME280;8482;54.396;18.590;2023-02-21T21:53:38;101395.56;;;5.03;68.55
48606;BME280;8482;54.396;18.590;2023-02-21T21:56:07;101407.06;;;5.00;69.13
48606;BME280;8482;54.396;18.590;2023-02-21T21:58:35;101402.72;;;4.99;69.38
48606;BME280;8482;54.396;18.590;2023-02-21T22:01:02;101406.34;;;4.97;68.64
48606;BME280;8482;54.396;18.590;2023-02-21T22:03:30;101415.09;;;4.97;68.79
48606;BME280;8482;54.396;18.590;2023-02-21T22:05:56;101418.72;;;4.95;68.04
48606;BME280;8482;54.396;18.590;2023-02-21T22:08:26;101429.38;;;4.91;67.11
48606;BME280;8482;54.396;18.590;2023-02-21T22:10:53;101430.41;;;4.87;66.47
48606;BME280;8482;54.396;18.590;2023-02-21T22:13:19;101432.31;;;4.84;66.34
48606;BME280;8482;54.396;18.590;2023-02-21T22:15:47;101430.63;;;4.83;66.55
48606;BME280;8482;54.396;18.590;2023-02-21T22:18:17;101434.25;;;4.80;65.99
48606;BME280;8482;54.396;18.590;2023-02-21T22:20:43;101444.81;;;4.79;66.42
48606;BME280;8482;54.396;18.590;2023-02-21T22:23:14;101442.38;;;4.74;65.98
48606;BME280;8482;54.396;18.590;2023-02-21T22:25:41;101449.22;;;4.78;65.96
48606;BME280;8482;54.396;18.590;2023-02-21T22:28:10;101447.50;;;4.77;66.98
48606;BME280;8482;54.396;18.590;2023-02-21T22:30:38;101457.31;;;4.73;66.18
48606;BME280;8482;54.396;18.590;2023-02-21T22:33:07;101460.78;;;4.74;66.29
48606;BME280;8482;54.396;18.590;2023-02-21T22:35:39;101463.63;;;4.69;66.49
48606;BME280;8482;54.396;18.590;2023-02-21T22:38:05;101467.94;;;4.70;66.49
48606;BME280;8482;54.396;18.590;2023-02-21T22:40:32;101474.03;;;4.71;66.45
